Time;durP1;ratioP1;P1;durP2;ratioP2;P2;SDS_P1;SDS_P2;PMS_P1;PMS_P2;Temp;Humidity;BMP_temperature;BMP_pressure;BME280_temperature;BME280_humidity;BME280_pressure;Samples;Min_cycle;Max_cycle;Signal;HPM_P1;HPM_P2
2021/11/17 02:27:18;;;;;;;18.03;10.07;;;;;;;4.82;90.56;101167.09;5040265;28;20860;-85
2021/11/17 02:30:07;;;;;;;21.23;11.07;;;;;;;4.83;90.71;101167.94;5041308;28;20229;-82
2021/11/17 02:32:49;;;;;;;21.87;11.43;;;;;;;4.82;90.84;101158.31;5026640;28;20295;-83
2021/11/17 02:35:30;;;;;;;21.40;11.20;;;;;;;4.81;90.80;101149.53;5038841;28;20261;-84
2021/11/17 02:38:12;;;;;;;19.03;10.83;;;;;;;4.81;91.06;101146.88;5027914;28;20248;-84
2021/11/17 02:41:01;;;;;;;22.53;10.97;;;;;;;4.81;90.69;101146.88;5045206;28;20669;-83
2021/11/17 02:43:45;;;;;;;19.97;10.53;;;;;;;4.81;90.47;101146.88;5043512;28;20241;-83
2021/11/17 02:46:34;;;;;;;16.07;9.70;;;;;;;4.82;90.62;101137.19;5044233;28;20244;-84
2021/11/17 02:49:15;;;;;;;19.37;9.67;;;;;;;4.82;90.24;101143.34;5045863;28;20212;-85
2021/11/17 02:51:54;;;;;;;16.63;9.97;;;;;;;4.83;90.45;101145.06;5052239;28;20289;-85
2021/11/17 02:54:51;;;;;;;18.10;9.33;;;;;;;4.82;90.75;101132.78;5037929;28;20230;-86
2021/11/17 02:57:39;;;;;;;18.60;10.63;;;;;;;4.84;90.12;101132.69;5035425;28;20249;-85
2021/11/17 03:00:28;;;;;;;18.63;9.90;;;;;;;4.85;90.72;101132.66;5036842;22;20322;-73
2021/11/17 03:03:21;;;;;;;17.17;10.07;;;;;;;4.85;90.28;101132.66;5010701;28;20322;-73
2021/11/17 03:06:03;;;;;;;15.10;8.57;;;;;;;4.86;90.22;101128.25;5011715;28;20221;-73
2021/11/17 03:08:46;;;;;;;14.30;8.53;;;;;;;4.84;89.96;101117.72;5001591;28;20509;-73
2021/11/17 03:11:31;;;;;;;16.27;8.17;;;;;;;4.84;90.39;101123.00;5005702;28;20207;-73
2021/11/17 03:14:22;;;;;;;13.03;7.50;;;;;;;4.84;90.17;101125.66;5032686;22;20332;-83
2021/11/17 03:17:05;;;;;;;12.37;7.57;;;;;;;4.83;89.78;101121.31;5033753;28;20657;-82
2021/11/17 03:19:43;;;;;;;11.77;7.27;;;;;;;4.83;89.73;101125.72;5024177;28;20750;-81
2021/11/17 03:22:29;;;;;;;11.03;6.67;;;;;;;4.84;89.64;101135.34;5025515;28;20273;-82
2021/11/17 03:25:11;;;;;;;10.93;7.07;;;;;;;4.85;89.80;101126.50;5025550;28;20776;-83
2021/11/17 03:27:51;;;;;;;12.37;7.40;;;;;;;4.84;89.76;101116.88;5028452;28;20202;-84
2021/11/17 03:30:52;;;;;;;15.47;7.67;;;;;;;4.86;89.46;101113.28;5025496;28;20689;-84
2021/11/17 03:33:36;;;;;;;11.47;6.67;;;;;;;4.85;89.18;101111.53;5019124;28;20317;-84
2021/11/17 03:36:22;;;;;;;13.87;7.63;;;;;;;4.86;89.03;101110.63;5023378;28;20209;-84
2021/11/17 03:39:20;;;;;;;14.70;7.93;;;;;;;4.86;89.07;101108.00;5023856;28;20720;-82
2021/11/17 03:42:14;;;;;;;14.80;8.03;;;;;;;4.86;88.75;101107.13;5025865;28;20323;-83
2021/11/17 03:45:00;;;;;;;15.27;8.40;;;;;;;4.86;89.07;101110.63;5018637;28;20303;-84
2021/11/17 03:47:51;;;;;;;12.80;8.03;;;;;;;4.84;88.88;101120.38;5014477;28;20305;-84
2021/11/17 03:50:35;;;;;;;13.93;8.50;;;;;;;4.84;88.93;101124.78;5018897;28;20237;-82
2021/11/17 03:53:25;;;;;;;13.27;7.60;;;;;;;4.85;88.30;101129.16;5026218;28;20226;-84
2021/11/17 03:56:13;;;;;;;18.07;9.00;;;;;;;4.84;88.34;101124.78;5031193;28;20237;-82
2021/11/17 03:58:52;;;;;;;15.47;7.97;;;;;;;4.85;88.00;101121.22;5030169;28;20606;-82
2021/11/17 04:01:34;;;;;;;16.50;8.33;;;;;;;4.85;87.95;101123.88;5027787;28;20249;-82
2021/11/17 04:04:23;;;;;;;16.67;8.13;;;;;;;4.85;87.88;101126.50;5037682;28;20206;-84
2021/11/17 04:07:04;;;;;;;17.43;8.23;;;;;;;4.84;87.95;101125.66;5039805;28;20269;-83
2021/11/17 04:09:46;;;;;;;16.20;8.60;;;;;;;4.85;87.98;101121.22;5040251;28;20669;-84
2021/11/17 04:12:34;;;;;;;16.50;9.07;;;;;;;4.81;87.97;101125.78;5033646;28;20293;-85
2021/11/17 04:15:25;;;;;;;15.77;8.13;;;;;;;4.80;87.72;101116.13;5032745;28;20309;-84
2021/11/17 04:18:00;;;;;;;16.00;8.20;;;;;;;4.82;87.96;101130.13;5031306;28;20206;-82
2021/11/17 04:20:45;;;;;;;15.47;8.97;;;;;;;4.82;87.46;101122.22;5032056;28;20308;-83
2021/11/17 04:23:26;;;;;;;18.87;8.90;;;;;;;4.84;87.74;101125.66;5029943;28;20289;-82
2021/11/17 04:26:10;;;;;;;16.77;8.43;;;;;;;4.85;87.45;101126.50;5033180;28;20591;-83
2021/11/17 04:29:00;;;;;;;15.47;8.13;;;;;;;4.85;87.71;101121.22;5032887;28;20293;-82
2021/11/17 04:31:55;;;;;;;15.20;8.77;;;;;;;4.85;87.70;101124.72;5029249;28;20720;-82
2021/11/17 04:34:41;;;;;;;12.90;8.13;;;;;;;4.85;87.42;101121.22;5029881;28;20302;-83
2021/11/17 04:37:35;;;;;;;15.53;8.63;;;;;;;4.86;86.81;101128.25;5024642;28;20291;-83
2021/11/17 04:40:22;;;;;;;16.87;7.87;;;;;;;4.85;87.19;101121.22;5032618;28;20230;-82
2021/11/17 04:43:09;;;;;;;16.33;8.87;;;;;;;4.85;86.82;101122.09;5027168;28;20206;-82
2021/11/17 04:45:50;;;;;;;18.97;8.17;;;;;;;4.85;86.98;101122.09;5015744;28;20199;-83
2021/11/17 04:48:36;;;;;;;15.60;9.20;;;;;;;4.84;87.07;101116.88;5023649;28;20471;-83
2021/11/17 04:51:16;;;;;;;17.07;9.10;;;;;;;4.83;86.85;101126.59;5029409;28;20314;-82
2021/11/17 04:53:55;;;;;;;16.13;8.10;;;;;;;4.83;86.64;101123.94;5038233;28;20230;-82
2021/11/17 04:56:48;;;;;;;16.43;8.53;;;;;;;4.84;86.89;101130.06;5027052;28;20249;-81
2021/11/17 04:59:28;;;;;;;14.83;8.23;;;;;;;4.83;86.82;101131.88;5027418;28;20703;-83
2021/11/17 05:02:24;;;;;;;16.67;9.70;;;;;;;4.83;86.65;101133.66;5035123;28;20198;-83
2021/11/17 05:05:05;;;;;;;17.37;9.10;;;;;;;4.83;86.54;101142.41;5015916;28;20290;-82
2021/11/17 05:07:42;;;;;;;16.57;10.03;;;;;;;4.81;86.91;101131.06;5027812;28;20571;-81
2021/11/17 05:10:22;;;;;;;18.43;10.50;;;;;;;4.81;86.94;101136.31;5020083;28;20317;-82
2021/11/17 05:13:02;;;;;;;16.83;9.30;;;;;;;4.81;86.89;101133.69;5020795;28;20329;-83
2021/11/17 05:15:40;;;;;;;19.23;10.27;;;;;;;4.81;86.44;101140.75;5029505;28;20272;-84
2021/11/17 05:18:16;;;;;;;24.07;11.40;;;;;;;4.82;86.68;101148.63;5030272;28;20273;-87
2021/11/17 05:20:51;;;;;;;18.57;11.33;;;;;;;4.81;86.60;101146.88;5023436;28;20234;-88
2021/11/17 05:23:31;;;;;;;20.27;10.73;;;;;;;4.80;86.47;101153.06;5018390;28;20716;-85
2021/11/17 05:26:11;;;;;;;25.17;12.93;;;;;;;4.79;86.57;101151.34;5024359;28;20270;-83
2021/11/17 05:28:55;;;;;;;26.70;13.80;;;;;;;4.79;86.82;101146.06;5023910;28;20297;-82
2021/11/17 05:31:34;;;;;;;26.53;13.60;;;;;;;4.79;86.77;101139.94;5020620;28;20695;-83
2021/11/17 05:34:22;;;;;;;28.90;13.50;;;;;;;4.79;87.04;101140.78;5024818;28;20224;-82
2021/11/17 05:36:58;;;;;;;25.50;13.13;;;;;;;4.77;86.83;101137.31;5025697;28;20297;-82
2021/11/17 05:39:41;;;;;;;25.73;13.50;;;;;;;4.79;86.35;101148.69;5022794;28;20285;-82
2021/11/17 05:42:20;;;;;;;24.43;12.93;;;;;;;4.79;86.74;101145.19;5023086;28;20292;-82
2021/11/17 05:45:01;;;;;;;28.63;15.60;;;;;;;4.77;86.62;101137.31;5019984;28;20203;-82
2021/11/17 05:47:39;;;;;;;25.37;14.40;;;;;;;4.75;86.63;101138.28;5022514;28;20260;-83
2021/11/17 05:50:29;;;;;;;26.17;14.57;;;;;;;4.74;86.69;101137.41;5021856;28;20301;-84
2021/11/17 05:53:13;;;;;;;29.40;14.93;;;;;;;4.75;86.84;101139.16;5020395;28;20194;-82
2021/11/17 05:56:06;;;;;;;28.77;15.03;;;;;;;4.74;86.38;101126.88;5026190;28;20710;-83
2021/11/17 05:58:49;;;;;;;30.17;15.47;;;;;;;4.75;86.39;101125.94;5025766;28;20204;-82
2021/11/17 06:01:32;;;;;;;24.53;13.70;;;;;;;4.74;86.54;101123.38;5025179;28;20628;-83
2021/11/17 06:04:01;;;;;;;24.53;14.00;;;;;;;4.75;86.40;101130.38;5021620;28;20842;-83
2021/11/17 06:06:27;;;;;;;26.33;12.37;;;;;;;4.74;86.76;101126.88;5023429;28;20202;-82
2021/11/17 06:08:55;;;;;;;25.60;13.73;;;;;;;4.74;86.70;101128.63;5020749;28;20568;-82
2021/11/17 06:11:27;;;;;;;28.00;13.47;;;;;;;4.74;86.49;101131.28;5018872;28;20206;-81
2021/11/17 06:13:55;;;;;;;21.07;12.03;;;;;;;4.74;86.70;101133.91;5019177;28;20225;-81
2021/11/17 06:16:22;;;;;;;29.37;14.57;;;;;;;4.74;86.86;101134.78;5020130;28;20199;-82
2021/11/17 06:18:49;;;;;;;23.07;12.23;;;;;;;4.75;87.15;101138.28;5023370;28;20657;-84
2021/11/17 06:21:17;;;;;;;21.03;12.37;;;;;;;4.76;86.61;101154.06;5024158;28;20217;-84
2021/11/17 06:23:49;;;;;;;26.57;13.77;;;;;;;4.76;86.61;101148.78;5019913;28;20209;-86
2021/11/17 06:26:21;;;;;;;24.73;12.93;;;;;;;4.76;86.59;101146.16;5024017;28;20745;-83
2021/11/17 06:28:51;;;;;;;22.47;13.33;;;;;;;4.77;87.17;101155.81;5024579;28;20210;-82
2021/11/17 06:31:18;;;;;;;25.87;13.63;;;;;;;4.77;86.70;101152.28;5029968;28;20201;-83
2021/11/17 06:33:45;;;;;;;21.33;12.47;;;;;;;4.78;86.82;101151.38;5030834;28;20287;-83
2021/11/17 06:36:11;;;;;;;23.93;12.93;;;;;;;4.78;86.57;101157.53;5031777;28;20305;-83
2021/11/17 06:38:38;;;;;;;24.17;13.93;;;;;;;4.78;86.46;101157.53;5029710;28;20249;-83
2021/11/17 06:41:06;;;;;;;23.47;13.73;;;;;;;4.81;86.72;101161.84;5023523;28;20292;-84
2021/11/17 06:43:32;;;;;;;25.23;14.63;;;;;;;4.80;86.68;101153.06;5032191;28;20237;-83
2021/11/17 06:46:01;;;;;;;23.80;13.87;;;;;;;4.80;86.50;101153.06;5022065;28;20305;-84
2021/11/17 06:48:29;;;;;;;26.63;14.70;;;;;;;4.82;86.41;101160.94;5029372;28;20636;-82
2021/11/17 06:50:56;;;;;;;24.53;14.33;;;;;;;4.81;86.91;101157.44;5026483;28;20242;-83
2021/11/17 06:53:25;;;;;;;31.17;15.33;;;;;;;4.81;86.47;101151.28;5024307;28;20211;-83
2021/11/17 06:55:53;;;;;;;29.73;14.60;;;;;;;4.79;86.41;101155.75;5023027;28;20673;-83
2021/11/17 06:58:20;;;;;;;25.87;13.53;;;;;;;4.79;86.22;101164.53;5018186;28;20663;-83
2021/11/17 07:00:50;;;;;;;25.27;13.47;;;;;;;4.79;86.49;101171.59;5017640;28;20325;-83
2021/11/17 07:03:18;;;;;;;23.93;13.43;;;;;;;4.78;86.52;101176.00;5032032;28;20214;-83
2021/11/17 07:05:45;;;;;;;23.70;12.53;;;;;;;4.79;86.28;101172.44;5025736;28;20206;-83
2021/11/17 07:08:11;;;;;;;22.03;13.10;;;;;;;4.78;86.89;101165.44;5025645;28;20202;-84
2021/11/17 07:10:38;;;;;;;23.63;13.00;;;;;;;4.78;86.86;101178.63;5019548;28;20752;-83
2021/11/17 07:13:06;;;;;;;26.97;12.13;;;;;;;4.80;86.38;101174.19;5023344;28;20305;-83
2021/11/17 07:15:34;;;;;;;24.53;12.60;;;;;;;4.79;86.56;101180.38;5016898;28;20317;-83
2021/11/17 07:18:01;;;;;;;25.87;13.00;;;;;;;4.80;86.92;101178.59;5025512;28;20309;-82
2021/11/17 07:20:29;;;;;;;29.00;14.07;;;;;;;4.78;86.69;101178.63;5031406;28;20233;-83
2021/11/17 07:22:55;;;;;;;27.23;14.47;;;;;;;4.78;86.98;101173.38;5019710;28;20211;-83
2021/11/17 07:25:23;;;;;;;22.37;12.43;;;;;;;4.77;87.13;101163.72;5029994;28;20212;-83
2021/11/17 07:27:51;;;;;;;25.37;12.73;;;;;;;4.79;87.12;101158.38;5017688;28;20222;-83
2021/11/17 07:30:21;;;;;;;26.90;13.13;;;;;;;4.79;86.81;101164.53;5021797;28;20226;-83
2021/11/17 07:32:48;;;;;;;24.33;12.37;;;;;;;4.81;87.25;101169.78;5036278;28;20293;-82
2021/11/17 07:35:15;;;;;;;20.73;11.67;;;;;;;4.78;87.62;101156.66;5020311;28;20236;-83
2021/11/17 07:37:43;;;;;;;24.17;13.20;;;;;;;4.78;87.54;101162.81;5027348;28;20225;-82
2021/11/17 07:40:12;;;;;;;22.47;12.17;;;;;;;4.77;87.86;101149.66;5028756;28;20236;-82
2021/11/17 07:42:39;;;;;;;21.13;11.57;;;;;;;4.79;87.38;101147.84;5022469;28;20772;-82
2021/11/17 07:45:07;;;;;;;22.10;11.77;;;;;;;4.76;87.70;101140.88;5035523;28;20580;-82
2021/11/17 07:47:34;;;;;;;20.97;11.17;;;;;;;4.75;87.61;101136.50;5021271;28;20206;-82
2021/11/17 07:50:02;;;;;;;18.73;9.93;;;;;;;4.75;87.74;101141.78;5027167;28;20234;-82
2021/11/17 07:52:29;;;;;;;19.23;10.67;;;;;;;4.78;87.91;101135.56;5016116;28;20242;-82
2021/11/17 07:54:57;;;;;;;14.43;8.83;;;;;;;4.80;88.25;101128.47;5015476;28;20230;-83
2021/11/17 07:57:23;;;;;;;15.50;9.60;;;;;;;4.81;87.87;101119.63;5015084;28;20257;-83
2021/11/17 07:59:50;;;;;;;19.63;10.03;;;;;;;4.82;88.32;101124.88;5028901;28;20232;-83
2021/11/17 08:02:17;;;;;;;17.20;8.93;;;;;;;4.83;88.35;101123.94;5033225;28;20206;-82
2021/11/17 08:04:44;;;;;;;14.37;9.13;;;;;;;4.86;88.05;101126.47;5035859;28;20566;-83
2021/11/17 08:07:14;;;;;;;15.47;9.87;;;;;;;4.88;88.04;101123.78;5030379;28;20214;-83
2021/11/17 08:09:42;;;;;;;15.67;9.00;;;;;;;4.91;88.24;101121.03;5030553;28;20273;-83
2021/11/17 08:12:10;;;;;;;15.03;8.50;;;;;;;4.96;88.39;101112.97;5015327;28;20218;-82
2021/11/17 08:14:37;;;;;;;16.67;9.20;;;;;;;5.00;88.33;101104.06;5029442;28;20227;-82
2021/11/17 08:17:04;;;;;;;13.07;7.53;;;;;;;5.01;88.43;101105.78;5023998;28;20587;-83
2021/11/17 08:19:31;;;;;;;13.30;7.83;;;;;;;5.03;88.41;101093.38;5033513;28;20260;-84
2021/11/17 08:21:58;;;;;;;15.67;8.83;;;;;;;5.02;88.62;101097.78;5023684;28;20214;-83
2021/11/17 08:24:25;;;;;;;13.87;7.97;;;;;;;5.06;88.27;101109.97;5036194;28;20242;-83
2021/11/17 08:26:51;;;;;;;13.10;8.23;;;;;;;5.08;88.19;101120.50;5034355;28;20225;-83
2021/11/17 08:29:19;;;;;;;12.57;8.50;;;;;;;5.12;88.41;101119.47;5030370;28;20277;-83
2021/11/17 08:31:46;;;;;;;16.77;9.60;;;;;;;5.12;88.02;101115.06;5022124;28;20211;-82
2021/11/17 08:34:12;;;;;;;14.53;8.87;;;;;;;5.13;88.35;101119.44;5036812;28;20214;-83
2021/11/17 08:36:39;;;;;;;14.23;9.27;;;;;;;5.19;88.22;101118.38;5022339;28;20230;-83
2021/11/17 08:39:06;;;;;;;15.63;9.20;;;;;;;5.21;88.11;101124.44;5022584;28;20230;-83
2021/11/17 08:41:33;;;;;;;14.30;8.53;;;;;;;5.26;88.16;101141.00;5036540;28;20297;-83
2021/11/17 08:43:59;;;;;;;13.30;8.10;;;;;;;5.30;87.73;101139.13;5027726;28;20598;-83
2021/11/17 08:46:28;;;;;;;14.47;8.93;;;;;;;5.32;87.95;101139.94;5026529;28;20241;-83
2021/11/17 08:48:56;;;;;;;13.33;7.70;;;;;;;5.37;87.70;101136.22;5018467;28;20229;-83
2021/11/17 08:51:29;;;;;;;10.53;7.03;;;;;;;5.41;87.58;101145.75;5025482;28;20210;-83
2021/11/17 08:53:56;;;;;;;11.07;7.23;;;;;;;5.46;87.49;101157.03;5019168;28;20217;-83
2021/11/17 08:56:23;;;;;;;11.73;7.47;;;;;;;5.48;87.12;101162.28;5033515;28;20234;-82
2021/11/17 08:58:49;;;;;;;11.40;7.27;;;;;;;5.50;87.43;101155.16;5033532;28;20229;-83
2021/11/17 09:01:20;;;;;;;13.93;8.33;;;;;;;5.50;87.10;101157.81;5029034;28;20214;-82
2021/11/17 09:03:48;;;;;;;12.53;7.83;;;;;;;5.50;86.82;101152.53;5030237;28;20214;-86
2021/11/17 09:06:15;;;;;;;13.77;7.87;;;;;;;5.53;86.68;101155.94;5034040;28;20210;-86
2021/11/17 09:08:43;;;;;;;10.73;7.03;;;;;;;5.51;86.86;101149.81;5034605;28;20214;-86
2021/11/17 09:11:12;;;;;;;10.90;7.33;;;;;;;5.52;86.69;101135.69;5032653;28;20218;-86
2021/11/17 09:13:39;;;;;;;13.23;7.77;;;;;;;5.55;86.63;101134.75;5036201;28;20214;-86
2021/11/17 09:16:08;;;;;;;11.00;7.43;;;;;;;5.57;86.78;101138.16;5032607;28;20249;-86
2021/11/17 09:18:37;;;;;;;10.93;7.57;;;;;;;5.66;86.38;101137.00;5030332;28;20212;-86
2021/11/17 09:21:08;;;;;;;10.90;7.43;;;;;;;5.67;86.18;101131.66;5025829;28;20310;-86
2021/11/17 09:23:35;;;;;;;9.80;7.27;;;;;;;5.74;86.50;101127.00;5034450;28;20194;-86
2021/11/17 09:26:04;;;;;;;9.83;6.60;;;;;;;5.76;86.43;101133.09;5035151;28;20206;-87
2021/11/17 09:28:33;;;;;;;10.67;6.60;;;;;;;5.78;85.99;101131.25;5038390;28;20293;-86
2021/11/17 09:31:00;;;;;;;7.53;6.07;;;;;;;5.79;86.05;101138.28;5034767;28;20229;-87
2021/11/17 09:33:27;;;;;;;9.93;6.37;;;;;;;5.85;86.22;101148.63;5034104;28;20216;-86
2021/11/17 09:35:55;;;;;;;10.90;7.10;;;;;;;5.88;85.96;101156.47;5018459;28;20601;-87
2021/11/17 09:38:24;;;;;;;9.03;6.60;;;;;;;5.91;85.96;101159.03;5016795;28;20665;-86
2021/11/17 09:40:54;;;;;;;9.70;6.33;;;;;;;5.94;85.88;101169.47;5022835;28;20292;-87
2021/11/17 09:43:25;;;;;;;10.40;7.40;;;;;;;5.97;85.64;101171.16;5034725;28;20202;-86
2021/11/17 09:45:53;;;;;;;8.00;6.17;;;;;;;5.93;85.40;101178.31;5034874;28;20218;-86
2021/11/17 09:48:26;;;;;;;9.63;6.77;;;;;;;5.95;85.28;101173.84;5035106;28;20210;-85
2021/11/17 09:50:56;;;;;;;12.47;6.20;;;;;;;5.98;84.89;101172.88;5029411;28;20727;-86
2021/11/17 09:53:28;;;;;;;8.93;6.17;;;;;;;5.99;85.23;101175.47;5025202;28;20600;-86
2021/11/17 09:56:00;;;;;;;10.43;7.50;;;;;;;6.01;85.23;101172.78;5017735;28;20585;-86
2021/11/17 09:58:30;;;;;;;8.83;6.57;;;;;;;6.00;84.57;101179.84;5017109;28;20633;-87
2021/11/17 10:00:59;;;;;;;11.70;6.90;;;;;;;6.01;84.67;101176.28;5021717;28;20261;-86
2021/11/17 10:03:32;;;;;;;8.77;6.83;;;;;;;6.05;84.46;101177.03;5034095;28;20217;-86
2021/11/17 10:14:21;;;;;;;9.63;6.77;;;;;;;6.15;84.22;101170.47;5016326;28;20206;-85
2021/11/17 10:16:48;;;;;;;11.03;7.13;;;;;;;6.20;84.02;101177.34;5029715;28;20241;-87
2021/11/17 10:19:19;;;;;;;10.43;8.00;;;;;;;6.19;84.17;101172.09;5033355;28;20226;-85
2021/11/17 10:21:46;;;;;;;9.80;7.13;;;;;;;6.21;84.42;101163.19;5032435;28;20567;-85
2021/11/17 10:24:17;;;;;;;10.37;7.10;;;;;;;6.23;84.06;101165.78;5028854;28;20205;-85
2021/11/17 10:26:48;;;;;;;11.50;7.30;;;;;;;6.24;84.02;101155.16;5028791;28;20572;-85
2021/11/17 10:29:28;;;;;;;10.20;7.20;;;;;;;6.27;84.23;101139.13;5027017;28;20742;-85
2021/11/17 10:31:59;;;;;;;12.30;8.33;;;;;;;6.28;83.90;101140.00;5032239;28;20575;-85
2021/11/17 10:34:31;;;;;;;10.20;6.97;;;;;;;6.30;84.12;101134.66;5027641;28;20277;-86
2021/11/17 10:37:04;;;;;;;12.20;8.87;;;;;;;6.31;83.88;101139.03;5037003;28;20251;-85
2021/11/17 10:39:44;;;;;;;10.87;6.73;;;;;;;6.34;83.86;101133.63;5031417;28;20222;-85
2021/11/17 10:42:14;;;;;;;10.50;6.77;;;;;;;6.35;84.01;101138.84;5029426;28;20201;-85
2021/11/17 10:44:49;;;;;;;10.17;7.47;;;;;;;6.37;83.90;101141.44;5021924;28;20202;-85
2021/11/17 10:47:32;;;;;;;10.90;7.47;;;;;;;6.41;83.83;101129.84;5034465;28;20622;-85
2021/11/17 10:50:12;;;;;;;10.23;7.53;;;;;;;6.44;83.24;101140.31;5033397;28;20226;-85
2021/11/17 10:52:42;;;;;;;11.13;7.53;;;;;;;6.49;83.84;101127.75;5036514;28;20221;-85
2021/11/17 10:55:20;;;;;;;12.50;8.20;;;;;;;6.52;84.28;101133.78;5030001;28;20233;-85
2021/11/17 10:57:47;;;;;;;11.27;7.63;;;;;;;6.53;83.66;101122.28;5032219;28;20204;-86
2021/11/17 11:00:16;;;;;;;10.80;7.40;;;;;;;6.59;83.81;101119.41;5039118;28;20227;-85
2021/11/17 11:02:43;;;;;;;12.53;7.97;;;;;;;6.60;83.39;101120.25;5032082;28;20596;-85
2021/11/17 11:05:14;;;;;;;11.00;8.17;;;;;;;6.62;83.88;101118.41;5038031;28;20206;-85
2021/11/17 11:07:45;;;;;;;10.77;8.00;;;;;;;6.64;83.93;101124.47;5031259;28;20653;-85
2021/11/17 11:10:21;;;;;;;10.93;7.67;;;;;;;6.69;83.59;101126.97;5036749;28;20583;-86
2021/11/17 11:12:49;;;;;;;11.10;7.93;;;;;;;6.70;83.33;101124.25;5032636;28;20207;-86
2021/11/17 11:15:29;;;;;;;14.30;9.47;;;;;;;6.73;83.22;101117.97;5038204;28;20311;-86
2021/11/17 11:18:33;;;;;;;13.27;9.70;;;;;;;6.74;83.20;101125.88;5039390;28;20202;-85
2021/11/17 11:21:00;;;;;;;10.83;8.53;;;;;;;6.75;82.91;101117.00;5040917;28;20222;-85
2021/11/17 11:23:29;;;;;;;12.13;9.03;;;;;;;6.76;83.57;101121.38;5030069;28;20217;-85
2021/11/17 11:26:16;;;;;;;12.40;8.63;;;;;;;6.77;82.78;101112.50;5025771;28;20202;-85
2021/11/17 11:28:50;;;;;;;13.33;9.33;;;;;;;6.76;83.30;101116.06;5036306;28;20210;-85
2021/11/17 11:31:42;;;;;;;15.50;9.90;;;;;;;6.78;83.08;101114.22;5033940;28;20205;-85
2021/11/17 11:34:44;;;;;;;16.70;14.73;;;;;;;6.77;83.43;101114.28;5036502;28;20206;-85
2021/11/17 11:37:34;;;;;;;11.80;7.17;;;;;;;6.81;83.46;101122.03;5033903;28;20278;-85
2021/11/17 11:40:13;;;;;;;12.37;8.30;;;;;;;6.82;83.27;101113.16;5036185;28;20313;-86
2021/11/17 11:43:22;;;;;;;11.00;8.43;;;;;;;6.80;82.95;101108.88;5024243;28;20209;-85
2021/11/17 11:45:51;;;;;;;11.73;8.07;;;;;;;6.82;83.01;101109.66;5033949;28;20206;-85
2021/11/17 11:49:05;;;;;;;14.23;10.93;;;;;;;6.81;82.96;101127.31;5036120;28;20202;-85
2021/11/17 11:51:47;;;;;;;13.07;9.43;;;;;;;6.83;83.60;101119.31;5029527;28;20230;-85
2021/11/17 11:54:19;;;;;;;11.93;9.03;;;;;;;6.84;83.68;101116.63;5036730;28;20221;-85
2021/11/17 11:56:51;;;;;;;13.80;10.87;;;;;;;6.82;84.07;101121.09;5039541;28;20242;-85
2021/11/17 11:59:21;;;;;;;13.70;9.33;;;;;;;6.85;83.76;101120.97;5035166;28;20233;-85
2021/11/17 12:01:49;;;;;;;12.80;9.43;;;;;;;6.86;83.44;101100.66;5033933;28;20578;-85
2021/11/17 12:04:21;;;;;;;13.70;9.03;;;;;;;6.85;83.35;101107.75;5021904;28;20207;-85
2021/11/17 12:06:51;;;;;;;14.27;9.70;;;;;;;6.84;83.74;101108.66;5040402;28;20212;-85
2021/11/17 12:09:24;;;;;;;14.23;9.53;;;;;;;6.85;84.03;101102.44;5035384;28;20249;-85
2021/11/17 12:11:56;;;;;;;13.33;8.90;;;;;;;6.86;83.95;101109.47;5029951;28;20202;-85
2021/11/17 12:14:43;;;;;;;17.80;11.10;;;;;;;6.86;84.19;101098.88;5024488;28;20219;-85
2021/11/17 12:17:11;;;;;;;17.93;10.00;;;;;;;6.85;84.46;101102.44;5032013;28;20628;-85
2021/11/17 12:19:48;;;;;;;12.23;9.03;;;;;;;6.83;84.69;101100.78;5031798;28;20308;-85
2021/11/17 12:22:19;;;;;;;15.67;10.20;;;;;;;6.82;84.75;101112.28;5032189;28;20288;-85
2021/11/17 12:24:48;;;;;;;12.60;8.67;;;;;;;6.85;84.64;101118.34;5040264;28;20240;-85
2021/11/17 12:27:19;;;;;;;11.27;8.77;;;;;;;6.85;85.05;101115.69;5038725;28;20206;-85
2021/11/17 12:29:50;;;;;;;13.33;8.40;;;;;;;6.86;84.67;101114.75;5034605;28;20313;-85
2021/11/17 12:32:22;;;;;;;11.23;7.60;;;;;;;6.87;85.12;101110.34;5030571;28;20209;-85
2021/11/17 12:34:56;;;;;;;13.07;7.90;;;;;;;6.88;84.71;101123.50;5018281;28;20278;-84
2021/11/17 12:37:26;;;;;;;10.23;7.60;;;;;;;6.89;84.92;101124.38;5019330;28;20219;-84
2021/11/17 12:40:07;;;;;;;31.07;19.63;;;;;;;6.88;85.49;101123.50;5019515;28;20868;-84
2021/11/17 12:42:39;;;;;;;35.93;19.80;;;;;;;6.90;85.16;101128.75;5018295;28;20203;-84
2021/11/17 12:45:21;;;;;;;12.73;9.03;;;;;;;6.91;84.88;101127.81;5019414;28;20222;-84
2021/11/17 12:47:52;;;;;;;11.67;8.57;;;;;;;6.91;85.23;101128.69;5017275;28;20183;-84
2021/11/17 12:50:23;;;;;;;11.27;8.20;;;;;;;6.92;85.55;101133.06;5017097;28;20226;-84
2021/11/17 12:52:59;;;;;;;10.40;8.00;;;;;;;6.92;85.39;101127.78;5017200;28;20639;-84
2021/11/17 12:55:30;;;;;;;10.87;7.57;;;;;;;6.94;85.65;101127.72;5016550;28;20179;-84
2021/11/17 12:58:04;;;;;;;12.43;8.17;;;;;;;6.97;85.70;101130.25;5017422;28;20223;-86
2021/11/17 13:00:59;;;;;;;12.83;7.97;;;;;;;6.98;85.62;101134.59;5031244;28;20577;-85
2021/11/17 13:03:36;;;;;;;13.53;8.70;;;;;;;7.02;85.50;101132.69;5033586;28;20566;-86
2021/11/17 13:06:16;;;;;;;13.07;9.50;;;;;;;7.01;86.13;101145.06;5032388;28;20580;-84
2021/11/17 13:08:44;;;;;;;12.97;8.83;;;;;;;7.03;86.50;101153.81;5030232;28;20225;-85
2021/11/17 13:11:20;;;;;;;18.33;9.90;;;;;;;7.05;86.17;101151.09;5031135;28;20212;-84
2021/11/17 13:13:55;;;;;;;16.13;10.97;;;;;;;7.05;86.20;101162.56;5027808;28;20218;-85
2021/11/17 13:16:25;;;;;;;15.40;10.83;;;;;;;7.05;86.61;101164.34;5031869;28;20214;-84
2021/11/17 13:18:56;;;;;;;16.10;11.90;;;;;;;7.07;86.13;101168.66;5032429;28;20213;-84
2021/11/17 13:21:31;;;;;;;17.43;11.30;;;;;;;7.08;86.50;101173.03;5022636;28;20198;-84
2021/11/17 13:24:29;;;;;;;20.23;10.93;;;;;;;7.08;86.64;101157.13;5039790;28;20206;-84
2021/11/17 13:27:19;;;;;;;18.53;10.70;;;;;;;7.09;87.02;101158.00;5021047;28;20572;-84
2021/11/17 13:29:52;;;;;;;18.77;10.57;;;;;;;7.09;86.43;101156.22;5032853;28;20230;-83
2021/11/17 13:32:25;;;;;;;15.90;10.43;;;;;;;7.11;87.59;101158.81;5027650;28;20204;-84
2021/11/17 13:34:53;;;;;;;14.17;10.10;;;;;;;7.08;87.10;101146.53;5027411;28;20209;-83
2021/11/17 13:37:34;;;;;;;13.70;9.50;;;;;;;7.06;87.40;101155.47;5021476;28;20696;-83
2021/11/17 13:40:04;;;;;;;14.77;9.30;;;;;;;7.05;87.54;101162.56;5026597;28;20287;-83
2021/11/17 13:42:31;;;;;;;15.93;9.63;;;;;;;7.06;87.43;101158.97;5022459;28;20202;-84
2021/11/17 13:45:01;;;;;;;15.47;10.00;;;;;;;7.07;87.75;101162.50;5024461;28;20209;-83
2021/11/17 13:47:31;;;;;;;13.50;8.40;;;;;;;7.08;88.29;101164.22;5023363;28;20198;-84
2021/11/17 13:49:59;;;;;;;14.33;10.23;;;;;;;7.09;88.24;101158.84;5025575;28;20599;-84
2021/11/17 13:52:28;;;;;;;19.10;10.47;;;;;;;7.09;88.31;101161.50;5019844;28;20207;-85
2021/11/17 13:54:54;;;;;;;15.53;9.67;;;;;;;7.09;88.18;101161.50;5027159;28;20210;-85
2021/11/17 13:57:23;;;;;;;16.20;10.10;;;;;;;7.07;88.66;101158.06;5025432;28;20226;-86
2021/11/17 13:59:50;;;;;;;14.40;9.10;;;;;;;7.09;88.50;101163.28;5024508;28;20589;-86
2021/11/17 14:02:18;;;;;;;13.17;8.50;;;;;;;7.10;88.55;101151.78;5025963;28;20206;-87
2021/11/17 14:04:46;;;;;;;14.27;8.50;;;;;;;7.14;88.82;101134.84;5028302;28;20727;-84
2021/11/17 14:07:15;;;;;;;13.30;9.20;;;;;;;7.13;88.40;101133.13;5028564;28;20313;-85
2021/11/17 14:09:42;;;;;;;14.30;9.43;;;;;;;7.14;88.85;101137.50;5027976;28;20229;-85
2021/11/17 14:12:10;;;;;;;18.47;11.37;;;;;;;7.14;89.36;101141.00;5025252;28;20203;-87
2021/11/17 14:14:37;;;;;;;18.27;10.57;;;;;;;7.14;89.09;101142.78;5029170;28;20206;-84
2021/11/17 14:17:05;;;;;;;17.67;11.53;;;;;;;7.14;89.29;101148.09;5031314;28;20312;-86
2021/11/17 14:19:36;;;;;;;20.80;12.90;;;;;;;7.16;89.08;101163.00;5026039;28;20320;-84
2021/11/17 14:22:03;;;;;;;24.40;14.93;;;;;;;7.17;89.29;101164.69;5027594;28;20221;-84
2021/11/17 14:24:30;;;;;;;20.00;12.33;;;;;;;7.19;89.71;101164.63;5024428;28;20218;-84
2021/11/17 14:26:57;;;;;;;17.67;12.17;;;;;;;7.21;89.22;101160.13;5028855;28;20225;-84
2021/11/17 14:29:27;;;;;;;16.90;12.50;;;;;;;7.23;89.59;101172.41;5030088;28;20229;-84
2021/11/17 14:31:57;;;;;;;22.57;13.50;;;;;;;7.25;89.49;101172.34;5028190;28;20205;-83